sensor_id;sensor_type;location;lat;lon;timestamp;P1;durP1;ratioP1;P2;durP2;ratioP2
9384;SDS011;4732;49.340;10.886;2023-06-22T03:01:01;9.70;;;8.70;;
9384;SDS011;4732;49.340;10.886;2023-06-22T03:03:29;13.90;;;9.68;;
9384;SDS011;4732;49.340;10.886;2023-06-22T03:05:55;11.27;;;10.13;;
9384;SDS011;4732;49.340;10.886;2023-06-22T03:08:20;12.48;;;10.27;;
9384;SDS011;4732;49.340;10.886;2023-06-22T03:10:46;10.00;;;8.85;;
9384;SDS011;4732;49.340;10.886;2023-06-22T03:13:11;13.13;;;8.95;;
9384;SDS011;4732;49.340;10.886;2023-06-22T03:15:37;10.15;;;8.73;;
9384;SDS011;4732;49.340;10.886;2023-06-22T03:18:02;12.82;;;9.23;;
9384;SDS011;4732;49.340;10.886;2023-06-22T03:20:28;10.95;;;8.88;;
9384;SDS011;4732;49.340;10.886;2023-06-22T03:22:58;11.88;;;9.45;;
9384;SDS011;4732;49.340;10.886;2023-06-22T03:25:24;13.55;;;9.18;;
9384;SDS011;4732;49.340;10.886;2023-06-22T03:27:49;12.88;;;9.63;;
9384;SDS011;4732;49.340;10.886;2023-06-22T03:30:15;12.38;;;9.18;;
9384;SDS011;4732;49.340;10.886;2023-06-22T03:32:40;9.30;;;8.40;;
9384;SDS011;4732;49.340;10.886;2023-06-22T03:35:07;12.23;;;9.30;;
9384;SDS011;4732;49.340;10.886;2023-06-22T03:37:33;9.52;;;8.25;;
9384;SDS011;4732;49.340;10.886;2023-06-22T03:39:58;10.57;;;8.90;;
9384;SDS011;4732;49.340;10.886;2023-06-22T03:42:24;9.77;;;8.75;;
9384;SDS011;4732;49.340;10.886;2023-06-22T03:44:50;11.50;;;8.80;;
9384;SDS011;4732;49.340;10.886;2023-06-22T03:47:16;14.02;;;9.10;;
9384;SDS011;4732;49.340;10.886;2023-06-22T03:49:42;9.88;;;8.50;;
9384;SDS011;4732;49.340;10.886;2023-06-22T03:52:08;9.23;;;7.82;;
9384;SDS011;4732;49.340;10.886;2023-06-22T03:54:34;9.82;;;8.82;;
9384;SDS011;4732;49.340;10.886;2023-06-22T03:56:59;13.30;;;8.65;;
9384;SDS011;4732;49.340;10.886;2023-06-22T03:59:25;11.50;;;9.60;;
9384;SDS011;4732;49.340;10.886;2023-06-22T04:01:51;11.73;;;9.23;;
9384;SDS011;4732;49.340;10.886;2023-06-22T04:04:19;9.63;;;8.65;;
9384;SDS011;4732;49.340;10.886;2023-06-22T04:06:45;11.95;;;9.15;;
9384;SDS011;4732;49.340;10.886;2023-06-22T04:09:10;10.70;;;9.32;;
9384;SDS011;4732;49.340;10.886;2023-06-22T04:11:37;16.08;;;11.60;;
9384;SDS011;4732;49.340;10.886;2023-06-22T04:14:02;14.98;;;10.20;;
9384;SDS011;4732;49.340;10.886;2023-06-22T04:16:28;14.93;;;10.32;;
9384;SDS011;4732;49.340;10.886;2023-06-22T04:18:53;13.45;;;10.40;;
9384;SDS011;4732;49.340;10.886;2023-06-22T04:21:19;14.93;;;11.02;;
9384;SDS011;4732;49.340;10.886;2023-06-22T04:23:45;15.90;;;10.75;;
9384;SDS011;4732;49.340;10.886;2023-06-22T04:26:11;11.30;;;10.10;;
9384;SDS011;4732;49.340;10.886;2023-06-22T04:28:37;12.77;;;10.63;;
9384;SDS011;4732;49.340;10.886;2023-06-22T04:31:02;12.80;;;11.20;;
9384;SDS011;4732;49.340;10.886;2023-06-22T04:33:28;14.80;;;10.43;;
9384;SDS011;4732;49.340;10.886;2023-06-22T04:35:57;12.48;;;11.15;;
9384;SDS011;4732;49.340;10.886;2023-06-22T04:38:23;12.32;;;11.07;;
9384;SDS011;4732;49.340;10.886;2023-06-22T04:40:49;14.52;;;11.40;;
9384;SDS011;4732;49.340;10.886;2023-06-22T04:43:15;12.10;;;10.88;;
9384;SDS011;4732;49.340;10.886;2023-06-22T04:45:41;16.10;;;11.30;;
9384;SDS011;4732;49.340;10.886;2023-06-22T04:48:06;13.13;;;11.18;;
9384;SDS011;4732;49.340;10.886;2023-06-22T04:50:33;11.80;;;10.10;;
9384;SDS011;4732;49.340;10.886;2023-06-22T04:52:59;14.88;;;10.80;;
9384;SDS011;4732;49.340;10.886;2023-06-22T04:55:24;11.57;;;10.38;;
9384;SDS011;4732;49.340;10.886;2023-06-22T04:57:50;12.60;;;11.30;;
9384;SDS011;4732;49.340;10.886;2023-06-22T05:00:17;12.35;;;11.10;;
9384;SDS011;4732;49.340;10.886;2023-06-22T05:02:44;11.85;;;9.85;;
9384;SDS011;4732;49.340;10.886;2023-06-22T05:05:11;16.75;;;11.75;;
9384;SDS011;4732;49.340;10.886;2023-06-22T05:07:39;12.18;;;10.48;;
9384;SDS011;4732;49.340;10.886;2023-06-22T05:10:08;12.30;;;9.90;;
9384;SDS011;4732;49.340;10.886;2023-06-22T05:12:35;12.45;;;11.23;;
9384;SDS011;4732;49.340;10.886;2023-06-22T05:15:01;12.50;;;10.35;;
9384;SDS011;4732;49.340;10.886;2023-06-22T05:17:26;11.98;;;10.80;;
9384;SDS011;4732;49.340;10.886;2023-06-22T05:19:52;12.75;;;10.70;;
9384;SDS011;4732;49.340;10.886;2023-06-22T05:22:18;12.32;;;11.02;;
9384;SDS011;4732;49.340;10.886;2023-06-22T05:24:44;10.40;;;8.85;;
9384;SDS011;4732;49.340;10.886;2023-06-22T05:27:09;13.25;;;10.85;;
9384;SDS011;4732;49.340;10.886;2023-06-22T05:29:36;11.55;;;10.23;;
9384;SDS011;4732;49.340;10.886;2023-06-22T05:32:02;11.32;;;9.32;;
9384;SDS011;4732;49.340;10.886;2023-06-22T05:34:28;10.20;;;9.20;;
9384;SDS011;4732;49.340;10.886;2023-06-22T05:36:53;11.05;;;9.23;;
9384;SDS011;4732;49.340;10.886;2023-06-22T05:39:19;12.38;;;10.57;;
9384;SDS011;4732;49.340;10.886;2023-06-22T05:41:45;12.55;;;10.68;;
9384;SDS011;4732;49.340;10.886;2023-06-22T05:44:11;12.63;;;9.27;;
9384;SDS011;4732;49.340;10.886;2023-06-22T05:46:40;17.70;;;10.20;;
9384;SDS011;4732;49.340;10.886;2023-06-22T05:49:09;11.05;;;9.95;;
9384;SDS011;4732;49.340;10.886;2023-06-22T05:51:35;10.70;;;9.60;;
9384;SDS011;4732;49.340;10.886;2023-06-22T05:54:00;11.52;;;10.32;;
9384;SDS011;4732;49.340;10.886;2023-06-22T05:56:26;10.25;;;9.10;;
9384;SDS011;4732;49.340;10.886;2023-06-22T05:58:51;11.80;;;9.52;;
9384;SDS011;4732;49.340;10.886;2023-06-22T06:01:17;10.35;;;9.45;;
9384;SDS011;4732;49.340;10.886;2023-06-22T06:03:42;10.23;;;9.13;;
9384;SDS011;4732;49.340;10.886;2023-06-22T06:06:09;9.57;;;8.68;;
9384;SDS011;4732;49.340;10.886;2023-06-22T06:08:35;13.23;;;9.52;;
9384;SDS011;4732;49.340;10.886;2023-06-22T06:11:01;10.90;;;9.48;;
9384;SDS011;4732;49.340;10.886;2023-06-22T06:13:27;9.93;;;8.90;;
9384;SDS011;4732;49.340;10.886;2023-06-22T06:15:52;11.00;;;8.52;;
9384;SDS011;4732;49.340;10.886;2023-06-22T06:18:20;9.80;;;7.60;;
9384;SDS011;4732;49.340;10.886;2023-06-22T06:20:45;10.32;;;9.32;;
9384;SDS011;4732;49.340;10.886;2023-06-22T06:23:11;13.50;;;8.95;;
9384;SDS011;4732;49.340;10.886;2023-06-22T06:25:36;10.57;;;8.60;;
9384;SDS011;4732;49.340;10.886;2023-06-22T06:28:02;12.57;;;8.63;;
9384;SDS011;4732;49.340;10.886;2023-06-22T06:30:28;11.30;;;9.45;;
9384;SDS011;4732;49.340;10.886;2023-06-22T06:32:53;12.75;;;9.15;;
9384;SDS011;4732;49.340;10.886;2023-06-22T06:35:19;11.95;;;9.02;;
9384;SDS011;4732;49.340;10.886;2023-06-22T06:37:45;10.55;;;9.15;;
9384;SDS011;4732;49.340;10.886;2023-06-22T06:40:13;10.55;;;9.45;;
9384;SDS011;4732;49.340;10.886;2023-06-22T06:42:40;10.65;;;9.48;;
9384;SDS011;4732;49.340;10.886;2023-06-22T06:45:09;10.90;;;8.60;;
9384;SDS011;4732;49.340;10.886;2023-06-22T06:47:36;10.93;;;8.65;;
9384;SDS011;4732;49.340;10.886;2023-06-22T06:50:02;10.25;;;8.10;;
9384;SDS011;4732;49.340;10.886;2023-06-22T06:52:29;10.52;;;7.93;;
9384;SDS011;4732;49.340;10.886;2023-06-22T06:54:54;11.02;;;8.35;;
9384;SDS011;4732;49.340;10.886;2023-06-22T06:57:20;10.95;;;8.60;;
9384;SDS011;4732;49.340;10.886;2023-06-22T06:59:45;9.75;;;7.38;;
9384;SDS011;4732;49.340;10.886;2023-06-22T07:02:11;12.45;;;8.90;;
9384;SDS011;4732;49.340;10.886;2023-06-22T07:04:36;11.07;;;7.68;;
9384;SDS011;4732;49.340;10.886;2023-06-22T07:07:02;10.02;;;7.95;;
9384;SDS011;4732;49.340;10.886;2023-06-22T07:09:28;9.88;;;8.00;;
9384;SDS011;4732;49.340;10.886;2023-06-22T07:11:53;12.38;;;8.30;;
9384;SDS011;4732;49.340;10.886;2023-06-22T07:14:19;8.13;;;7.32;;
9384;SDS011;4732;49.340;10.886;2023-06-22T07:16:44;9.90;;;7.25;;
9384;SDS011;4732;49.340;10.886;2023-06-22T07:19:11;7.70;;;6.93;;
9384;SDS011;4732;49.340;10.886;2023-06-22T07:21:37;9.95;;;7.53;;
9384;SDS011;4732;49.340;10.886;2023-06-22T07:24:04;7.35;;;6.15;;
9384;SDS011;4732;49.340;10.886;2023-06-22T07:26:30;12.20;;;7.25;;
9384;SDS011;4732;49.340;10.886;2023-06-22T07:28:56;10.60;;;6.63;;
9384;SDS011;4732;49.340;10.886;2023-06-22T07:31:23;9.30;;;7.13;;
9384;SDS011;4732;49.340;10.886;2023-06-22T07:33:50;7.60;;;6.80;;
9384;SDS011;4732;49.340;10.886;2023-06-22T07:36:16;10.95;;;6.90;;
9384;SDS011;4732;49.340;10.886;2023-06-22T07:38:42;7.57;;;6.78;;
9384;SDS011;4732;49.340;10.886;2023-06-22T07:41:08;8.63;;;6.40;;
9384;SDS011;4732;49.340;10.886;2023-06-22T07:43:33;8.38;;;6.30;;
9384;SDS011;4732;49.340;10.886;2023-06-22T07:46:01;7.43;;;6.30;;
9384;SDS011;4732;49.340;10.886;2023-06-22T07:48:28;8.23;;;5.85;;
9384;SDS011;4732;49.340;10.886;2023-06-22T07:50:53;11.15;;;5.85;;
9384;SDS011;4732;49.340;10.886;2023-06-22T07:53:20;11.48;;;6.30;;
9384;SDS011;4732;49.340;10.886;2023-06-22T07:55:46;7.18;;;6.22;;
9384;SDS011;4732;49.340;10.886;2023-06-22T07:58:12;11.02;;;6.63;;
9384;SDS011;4732;49.340;10.886;2023-06-22T08:00:38;7.68;;;5.75;;
9384;SDS011;4732;49.340;10.886;2023-06-22T08:03:06;10.40;;;6.22;;
9384;SDS011;4732;49.340;10.886;2023-06-22T08:05:32;7.80;;;6.00;;
9384;SDS011;4732;49.340;10.886;2023-06-22T08:07:57;7.25;;;5.80;;
9384;SDS011;4732;49.340;10.886;2023-06-22T08:10:23;7.55;;;6.18;;
9384;SDS011;4732;49.340;10.886;2023-06-22T08:12:49;7.25;;;5.82;;
9384;SDS011;4732;49.340;10.886;2023-06-22T08:15:14;7.57;;;5.50;;
9384;SDS011;4732;49.340;10.886;2023-06-22T08:17:40;12.90;;;5.70;;
9384;SDS011;4732;49.340;10.886;2023-06-22T08:20:06;7.43;;;5.13;;
9384;SDS011;4732;49.340;10.886;2023-06-22T08:22:36;8.18;;;5.30;;
9384;SDS011;4732;49.340;10.886;2023-06-22T08:25:03;8.45;;;5.00;;
9384;SDS011;4732;49.340;10.886;2023-06-22T08:27:29;14.40;;;6.00;;
9384;SDS011;4732;49.340;10.886;2023-06-22T08:29:56;6.97;;;5.15;;
9384;SDS011;4732;49.340;10.886;2023-06-22T08:32:28;7.57;;;5.30;;
9384;SDS011;4732;49.340;10.886;2023-06-22T08:34:54;11.63;;;5.88;;
9384;SDS011;4732;49.340;10.886;2023-06-22T08:37:20;7.35;;;4.97;;
9384;SDS011;4732;49.340;10.886;2023-06-22T08:39:48;9.35;;;5.00;;
9384;SDS011;4732;49.340;10.886;2023-06-22T08:42:15;8.57;;;5.38;;
9384;SDS011;4732;49.340;10.886;2023-06-22T08:44:40;9.13;;;5.15;;
9384;SDS011;4732;49.340;10.886;2023-06-22T08:47:06;9.18;;;5.15;;
9384;SDS011;4732;49.340;10.886;2023-06-22T08:49:32;8.95;;;4.90;;
9384;SDS011;4732;49.340;10.886;2023-06-22T08:51:57;6.60;;;4.85;;
9384;SDS011;4732;49.340;10.886;2023-06-22T08:54:23;8.13;;;4.90;;
9384;SDS011;4732;49.340;10.886;2023-06-22T08:56:48;6.88;;;4.85;;
9384;SDS011;4732;49.340;10.886;2023-06-22T08:59:14;8.15;;;5.10;;
9384;SDS011;4732;49.340;10.886;2023-06-22T09:01:39;69.15;;;10.52;;
9384;SDS011;4732;49.340;10.886;2023-06-22T09:04:05;9.38;;;5.10;;
9384;SDS011;4732;49.340;10.886;2023-06-22T09:06:32;11.15;;;4.80;;
9384;SDS011;4732;49.340;10.886;2023-06-22T09:08:58;8.63;;;4.85;;
9384;SDS011;4732;49.340;10.886;2023-06-22T09:11:26;8.43;;;4.75;;
9384;SDS011;4732;49.340;10.886;2023-06-22T09:13:52;8.90;;;5.00;;
9384;SDS011;4732;49.340;10.886;2023-06-22T09:16:18;13.50;;;5.70;;
9384;SDS011;4732;49.340;10.886;2023-06-22T09:18:47;7.75;;;5.00;;
9384;SDS011;4732;49.340;10.886;2023-06-22T09:21:13;9.85;;;4.75;;
9384;SDS011;4732;49.340;10.886;2023-06-22T09:23:38;7.38;;;4.13;;
9384;SDS011;4732;49.340;10.886;2023-06-22T09:26:04;10.50;;;4.85;;
9384;SDS011;4732;49.340;10.886;2023-06-22T09:28:29;7.90;;;4.53;;
9384;SDS011;4732;49.340;10.886;2023-06-22T09:30:55;8.75;;;4.35;;
9384;SDS011;4732;49.340;10.886;2023-06-22T09:33:23;8.13;;;4.40;;
9384;SDS011;4732;49.340;10.886;2023-06-22T09:35:49;9.48;;;4.22;;
9384;SDS011;4732;49.340;10.886;2023-06-22T09:38:15;8.73;;;4.90;;
9384;SDS011;4732;49.340;10.886;2023-06-22T09:40:41;10.02;;;5.35;;
9384;SDS011;4732;49.340;10.886;2023-06-22T09:43:07;10.98;;;4.78;;
9384;SDS011;4732;49.340;10.886;2023-06-22T09:45:33;11.13;;;4.15;;
9384;SDS011;4732;49.340;10.886;2023-06-22T09:47:58;8.15;;;4.13;;
9384;SDS011;4732;49.340;10.886;2023-06-22T09:50:24;7.90;;;4.07;;
9384;SDS011;4732;49.340;10.886;2023-06-22T09:52:49;8.40;;;4.28;;
9384;SDS011;4732;49.340;10.886;2023-06-22T09:55:22;7.28;;;4.40;;
9384;SDS011;4732;49.340;10.886;2023-06-22T09:57:48;7.13;;;4.25;;
9384;SDS011;4732;49.340;10.886;2023-06-22T10:00:15;10.80;;;4.43;;
9384;SDS011;4732;49.340;10.886;2023-06-22T10:02:41;10.23;;;4.38;;
9384;SDS011;4732;49.340;10.886;2023-06-22T10:05:07;6.78;;;4.45;;
9384;SDS011;4732;49.340;10.886;2023-06-22T10:07:33;11.15;;;4.45;;
9384;SDS011;4732;49.340;10.886;2023-06-22T10:09:59;10.80;;;4.10;;
9384;SDS011;4732;49.340;10.886;2023-06-22T10:12:25;11.98;;;4.80;;
9384;SDS011;4732;49.340;10.886;2023-06-22T10:14:52;6.68;;;4.22;;
9384;SDS011;4732;49.340;10.886;2023-06-22T10:17:17;8.90;;;4.53;;
9384;SDS011;4732;49.340;10.886;2023-06-22T10:19:43;10.18;;;4.38;;
9384;SDS011;4732;49.340;10.886;2023-06-22T10:22:08;7.82;;;4.60;;
9384;SDS011;4732;49.340;10.886;2023-06-22T10:24:34;12.77;;;4.80;;
9384;SDS011;4732;49.340;10.886;2023-06-22T10:26:59;10.43;;;4.90;;
9384;SDS011;4732;49.340;10.886;2023-06-22T10:29:25;9.63;;;4.20;;
9384;SDS011;4732;49.340;10.886;2023-06-22T10:31:51;9.80;;;5.00;;
9384;SDS011;4732;49.340;10.886;2023-06-22T10:34:16;9.60;;;4.35;;
9384;SDS011;4732;49.340;10.886;2023-06-22T10:36:42;8.52;;;4.25;;
9384;SDS011;4732;49.340;10.886;2023-06-22T10:39:07;9.85;;;5.00;;
9384;SDS011;4732;49.340;10.886;2023-06-22T10:41:33;11.30;;;4.47;;
9384;SDS011;4732;49.340;10.886;2023-06-22T10:44:00;7.35;;;4.68;;
9384;SDS011;4732;49.340;10.886;2023-06-22T10:46:25;9.30;;;5.03;;
9384;SDS011;4732;49.340;10.886;2023-06-22T10:48:51;11.68;;;5.00;;
9384;SDS011;4732;49.340;10.886;2023-06-22T10:51:19;9.68;;;4.30;;
9384;SDS011;4732;49.340;10.886;2023-06-22T10:53:44;13.85;;;4.60;;
9384;SDS011;4732;49.340;10.886;2023-06-22T10:56:10;8.32;;;4.32;;
9384;SDS011;4732;49.340;10.886;2023-06-22T10:58:36;12.63;;;4.85;;
9384;SDS011;4732;49.340;10.886;2023-06-22T11:01:01;13.32;;;4.40;;
9384;SDS011;4732;49.340;10.886;2023-06-22T11:03:28;10.32;;;4.75;;
9384;SDS011;4732;49.340;10.886;2023-06-22T11:05:53;11.68;;;4.40;;
9384;SDS011;4732;49.340;10.886;2023-06-22T11:08:19;10.25;;;4.88;;
9384;SDS011;4732;49.340;10.886;2023-06-22T11:10:44;9.70;;;5.18;;
9384;SDS011;4732;49.340;10.886;2023-06-22T11:13:10;16.63;;;5.32;;
9384;SDS011;4732;49.340;10.886;2023-06-22T11:15:36;10.73;;;5.10;;
9384;SDS011;4732;49.340;10.886;2023-06-22T11:18:01;14.70;;;5.25;;
9384;SDS011;4732;49.340;10.886;2023-06-22T11:20:27;13.43;;;4.55;;
9384;SDS011;4732;49.340;10.886;2023-06-22T11:22:52;14.20;;;4.63;;
9384;SDS011;4732;49.340;10.886;2023-06-22T11:25:18;9.77;;;4.70;;
9384;SDS011;4732;49.340;10.886;2023-06-22T11:27:43;13.18;;;5.00;;
9384;SDS011;4732;49.340;10.886;2023-06-22T11:30:09;10.82;;;4.88;;
9384;SDS011;4732;49.340;10.886;2023-06-22T11:32:34;7.80;;;4.75;;
9384;SDS011;4732;49.340;10.886;2023-06-22T11:35:00;10.73;;;4.80;;
9384;SDS011;4732;49.340;10.886;2023-06-22T11:37:26;10.38;;;4.70;;
9384;SDS011;4732;49.340;10.886;2023-06-22T11:39:51;9.93;;;5.00;;
9384;SDS011;4732;49.340;10.886;2023-06-22T11:42:19;9.90;;;5.20;;
9384;SDS011;4732;49.340;10.886;2023-06-22T11:44:45;9.73;;;4.63;;
9384;SDS011;4732;49.340;10.886;2023-06-22T11:47:11;9.07;;;4.60;;
9384;SDS011;4732;49.340;10.886;2023-06-22T11:49:36;7.18;;;4.53;;
9384;SDS011;4732;49.340;10.886;2023-06-22T11:52:02;11.80;;;4.60;;
9384;SDS011;4732;49.340;10.886;2023-06-22T11:54:27;10.27;;;5.28;;
9384;SDS011;4732;49.340;10.886;2023-06-22T11:56:53;10.48;;;5.32;;
9384;SDS011;4732;49.340;10.886;2023-06-22T11:59:18;12.35;;;5.07;;
9384;SDS011;4732;49.340;10.886;2023-06-22T12:01:44;8.43;;;5.10;;
9384;SDS011;4732;49.340;10.886;2023-06-22T12:04:09;10.07;;;5.03;;
9384;SDS011;4732;49.340;10.886;2023-06-22T12:06:37;9.27;;;5.00;;
9384;SDS011;4732;49.340;10.886;2023-06-22T12:09:03;8.45;;;5.05;;
9384;SDS011;4732;49.340;10.886;2023-06-22T12:11:30;10.05;;;5.22;;
9384;SDS011;4732;49.340;10.886;2023-06-22T12:13:55;15.05;;;5.55;;
9384;SDS011;4732;49.340;10.886;2023-06-22T12:16:21;9.13;;;4.90;;
9384;SDS011;4732;49.340;10.886;2023-06-22T12:18:47;12.88;;;5.38;;
9384;SDS011;4732;49.340;10.886;2023-06-22T12:21:12;14.02;;;5.40;;
9384;SDS011;4732;49.340;10.886;2023-06-22T12:23:38;11.52;;;5.20;;
9384;SDS011;4732;49.340;10.886;2023-06-22T12:26:03;16.30;;;5.30;;
9384;SDS011;4732;49.340;10.886;2023-06-22T12:28:29;10.15;;;5.45;;
9384;SDS011;4732;49.340;10.886;2023-06-22T12:30:54;12.73;;;5.45;;
9384;SDS011;4732;49.340;10.886;2023-06-22T12:33:20;10.27;;;5.30;;
9384;SDS011;4732;49.340;10.886;2023-06-22T12:35:45;13.07;;;5.53;;
9384;SDS011;4732;49.340;10.886;2023-06-22T12:38:13;18.40;;;5.35;;
9384;SDS011;4732;49.340;10.886;2023-06-22T12:40:39;15.98;;;5.30;;
9384;SDS011;4732;49.340;10.886;2023-06-22T12:43:04;10.73;;;4.97;;
9384;SDS011;4732;49.340;10.886;2023-06-22T12:45:30;12.98;;;5.63;;
9384;SDS011;4732;49.340;10.886;2023-06-22T12:47:58;10.93;;;4.63;;
9384;SDS011;4732;49.340;10.886;2023-06-22T12:50:24;10.60;;;5.00;;
9384;SDS011;4732;49.340;10.886;2023-06-22T12:52:50;13.57;;;5.70;;
9384;SDS011;4732;49.340;10.886;2023-06-22T12:55:15;13.90;;;5.32;;
9384;SDS011;4732;49.340;10.886;2023-06-22T12:57:41;16.90;;;5.45;;
9384;SDS011;4732;49.340;10.886;2023-06-22T13:00:07;10.90;;;5.13;;
9384;SDS011;4732;49.340;10.886;2023-06-22T13:02:34;10.88;;;5.05;;
9384;SDS011;4732;49.340;10.886;2023-06-22T13:05:01;14.27;;;5.90;;
9384;SDS011;4732;49.340;10.886;2023-06-22T13:07:26;15.15;;;5.07;;
9384;SDS011;4732;49.340;10.886;2023-06-22T13:09:52;12.48;;;5.43;;
9384;SDS011;4732;49.340;10.886;2023-06-22T13:12:18;19.65;;;5.72;;
9384;SDS011;4732;49.340;10.886;2023-06-22T13:14:45;12.77;;;5.22;;
9384;SDS011;4732;49.340;10.886;2023-06-22T13:17:11;10.27;;;5.05;;
9384;SDS011;4732;49.340;10.886;2023-06-22T13:19:38;11.68;;;5.10;;
9384;SDS011;4732;49.340;10.886;2023-06-22T13:22:03;10.50;;;5.50;;
9384;SDS011;4732;49.340;10.886;2023-06-22T13:24:30;17.33;;;5.75;;
9384;SDS011;4732;49.340;10.886;2023-06-22T13:26:55;12.27;;;5.13;;
9384;SDS011;4732;49.340;10.886;2023-06-22T13:29:21;10.00;;;5.00;;
9384;SDS011;4732;49.340;10.886;2023-06-22T13:31:46;16.10;;;5.50;;
9384;SDS011;4732;49.340;10.886;2023-06-22T13:34:12;7.57;;;4.70;;
9384;SDS011;4732;49.340;10.886;2023-06-22T13:36:37;9.10;;;4.97;;
9384;SDS011;4732;49.340;10.886;2023-06-22T13:39:03;11.52;;;5.32;;
9384;SDS011;4732;49.340;10.886;2023-06-22T13:41:28;14.02;;;5.75;;
9384;SDS011;4732;49.340;10.886;2023-06-22T13:43:54;12.15;;;5.28;;
9384;SDS011;4732;49.340;10.886;2023-06-22T13:46:20;11.38;;;5.18;;
9384;SDS011;4732;49.340;10.886;2023-06-22T13:48:45;15.65;;;5.13;;
9384;SDS011;4732;49.340;10.886;2023-06-22T13:51:11;15.88;;;5.25;;
9384;SDS011;4732;49.340;10.886;2023-06-22T13:53:36;15.52;;;5.65;;
9384;SDS011;4732;49.340;10.886;2023-06-22T13:56:02;13.18;;;5.35;;
9384;SDS011;4732;49.340;10.886;2023-06-22T13:58:27;8.70;;;4.70;;
9384;SDS011;4732;49.340;10.886;2023-06-22T14:00:53;13.52;;;5.50;;
9384;SDS011;4732;49.340;10.886;2023-06-22T14:03:18;13.07;;;5.78;;
9384;SDS011;4732;49.340;10.886;2023-06-22T14:05:44;13.45;;;5.80;;
9384;SDS011;4732;49.340;10.886;2023-06-22T14:08:12;13.15;;;5.85;;
9384;SDS011;4732;49.340;10.886;2023-06-22T14:10:38;13.63;;;4.93;;
9384;SDS011;4732;49.340;10.886;2023-06-22T14:13:03;14.13;;;5.68;;
9384;SDS011;4732;49.340;10.886;2023-06-22T14:15:31;11.27;;;5.20;;
9384;SDS011;4732;49.340;10.886;2023-06-22T14:17:57;11.02;;;5.18;;
9384;SDS011;4732;49.340;10.886;2023-06-22T14:20:22;9.05;;;4.88;;
9384;SDS011;4732;49.340;10.886;2023-06-22T14:22:48;11.45;;;5.18;;
9384;SDS011;4732;49.340;10.886;2023-06-22T14:25:13;11.63;;;4.80;;
9384;SDS011;4732;49.340;10.886;2023-06-22T14:27:39;16.20;;;5.60;;
9384;SDS011;4732;49.340;10.886;2023-06-22T14:30:04;12.88;;;5.72;;
9384;SDS011;4732;49.340;10.886;2023-06-22T14:32:30;12.52;;;5.30;;
9384;SDS011;4732;49.340;10.886;2023-06-22T14:34:56;11.18;;;4.85;;
9384;SDS011;4732;49.340;10.886;2023-06-22T14:37:22;10.48;;;5.07;;
9384;SDS011;4732;49.340;10.886;2023-06-22T14:39:47;9.65;;;5.07;;
9384;SDS011;4732;49.340;10.886;2023-06-22T14:42:12;9.80;;;5.68;;
9384;SDS011;4732;49.340;10.886;2023-06-22T14:44:41;9.55;;;5.30;;
9384;SDS011;4732;49.340;10.886;2023-06-22T14:47:07;10.00;;;5.22;;
9384;SDS011;4732;49.340;10.886;2023-06-22T14:49:32;11.13;;;5.30;;
9384;SDS011;4732;49.340;10.886;2023-06-22T14:51:58;10.80;;;5.18;;
9384;SDS011;4732;49.340;10.886;2023-06-22T14:54:23;12.93;;;5.45;;
9384;SDS011;4732;49.340;10.886;2023-06-22T14:56:50;16.00;;;5.78;;
9384;SDS011;4732;49.340;10.886;2023-06-22T14:59:15;10.98;;;5.00;;
9384;SDS011;4732;49.340;10.886;2023-06-22T15:01:41;14.60;;;5.53;;
9384;SDS011;4732;49.340;10.886;2023-06-22T15:04:06;12.70;;;5.57;;
9384;SDS011;4732;49.340;10.886;2023-06-22T15:06:32;15.35;;;6.20;;
9384;SDS011;4732;49.340;10.886;2023-06-22T15:08:57;17.50;;;5.88;;
9384;SDS011;4732;49.340;10.886;2023-06-22T15:11:23;13.55;;;6.32;;
9384;SDS011;4732;49.340;10.886;2023-06-22T15:13:48;16.90;;;5.70;;
9384;SDS011;4732;49.340;10.886;2023-06-22T15:16:14;11.15;;;5.78;;
9384;SDS011;4732;49.340;10.886;2023-06-22T15:18:40;12.77;;;5.75;;
9384;SDS011;4732;49.340;10.886;2023-06-22T15:21:06;10.93;;;5.30;;
9384;SDS011;4732;49.340;10.886;2023-06-22T15:23:32;19.80;;;5.65;;
9384;SDS011;4732;49.340;10.886;2023-06-22T15:25:58;14.40;;;5.63;;
9384;SDS011;4732;49.340;10.886;2023-06-22T15:28:26;8.25;;;5.47;;
9384;SDS011;4732;49.340;10.886;2023-06-22T15:30:52;21.10;;;5.85;;
9384;SDS011;4732;49.340;10.886;2023-06-22T15:33:18;11.85;;;6.30;;
9384;SDS011;4732;49.340;10.886;2023-06-22T15:35:44;13.45;;;5.82;;
9384;SDS011;4732;49.340;10.886;2023-06-22T15:38:09;15.73;;;5.75;;
9384;SDS011;4732;49.340;10.886;2023-06-22T15:40:35;16.23;;;5.63;;
9384;SDS011;4732;49.340;10.886;2023-06-22T15:43:00;12.00;;;5.35;;
9384;SDS011;4732;49.340;10.886;2023-06-22T15:45:26;14.88;;;5.18;;
9384;SDS011;4732;49.340;10.886;2023-06-22T15:47:51;9.57;;;5.22;;
9384;SDS011;4732;49.340;10.886;2023-06-22T15:50:17;15.50;;;5.53;;
9384;SDS011;4732;49.340;10.886;2023-06-22T15:52:43;15.88;;;5.68;;
9384;SDS011;4732;49.340;10.886;2023-06-22T15:55:13;15.13;;;5.47;;
9384;SDS011;4732;49.340;10.886;2023-06-22T15:57:39;14.57;;;5.60;;
9384;SDS011;4732;49.340;10.886;2023-06-22T16:00:05;15.95;;;5.47;;
9384;SDS011;4732;49.340;10.886;2023-06-22T16:02:33;9.38;;;5.32;;
9384;SDS011;4732;49.340;10.886;2023-06-22T16:04:58;14.32;;;5.10;;
9384;SDS011;4732;49.340;10.886;2023-06-22T16:07:24;15.90;;;5.93;;
9384;SDS011;4732;49.340;10.886;2023-06-22T16:09:50;16.25;;;5.55;;
9384;SDS011;4732;49.340;10.886;2023-06-22T16:12:15;9.88;;;5.50;;
9384;SDS011;4732;49.340;10.886;2023-06-22T16:14:41;13.57;;;4.82;;
9384;SDS011;4732;49.340;10.886;2023-06-22T16:17:06;12.55;;;5.13;;
9384;SDS011;4732;49.340;10.886;2023-06-22T16:19:32;11.85;;;5.43;;
9384;SDS011;4732;49.340;10.886;2023-06-22T16:21:58;12.02;;;5.10;;
9384;SDS011;4732;49.340;10.886;2023-06-22T16:24:23;14.00;;;5.05;;
9384;SDS011;4732;49.340;10.886;2023-06-22T16:26:49;15.48;;;5.30;;
9384;SDS011;4732;49.340;10.886;2023-06-22T16:29:15;15.82;;;5.50;;
9384;SDS011;4732;49.340;10.886;2023-06-22T16:31:40;22.23;;;5.78;;
9384;SDS011;4732;49.340;10.886;2023-06-22T16:34:06;8.82;;;5.07;;
9384;SDS011;4732;49.340;10.886;2023-06-22T16:36:32;10.07;;;4.75;;
9384;SDS011;4732;49.340;10.886;2023-06-22T16:38:57;16.42;;;5.38;;
9384;SDS011;4732;49.340;10.886;2023-06-22T16:41:22;11.00;;;5.28;;
9384;SDS011;4732;49.340;10.886;2023-06-22T16:43:50;13.52;;;5.18;;
9384;SDS011;4732;49.340;10.886;2023-06-22T16:46:16;13.15;;;5.55;;
9384;SDS011;4732;49.340;10.886;2023-06-22T16:48:41;12.48;;;5.28;;
9384;SDS011;4732;49.340;10.886;2023-06-22T16:51:14;13.65;;;5.07;;
9384;SDS011;4732;49.340;10.886;2023-06-22T16:53:39;13.10;;;4.95;;
9384;SDS011;4732;49.340;10.886;2023-06-22T16:56:05;19.60;;;5.50;;
9384;SDS011;4732;49.340;10.886;2023-06-22T16:58:30;13.55;;;5.20;;
9384;SDS011;4732;49.340;10.886;2023-06-22T17:00:56;14.40;;;5.68;;
9384;SDS011;4732;49.340;10.886;2023-06-22T17:03:24;12.73;;;5.07;;
9384;SDS011;4732;49.340;10.886;2023-06-22T17:05:52;12.05;;;4.97;;
9384;SDS011;4732;49.340;10.886;2023-06-22T17:08:20;13.90;;;4.60;;
9384;SDS011;4732;49.340;10.886;2023-06-22T17:10:46;13.73;;;4.88;;
9384;SDS011;4732;49.340;10.886;2023-06-22T17:13:12;15.95;;;5.35;;
9384;SDS011;4732;49.340;10.886;2023-06-22T17:15:38;16.45;;;5.35;;
9384;SDS011;4732;49.340;10.886;2023-06-22T17:18:05;15.50;;;5.40;;
9384;SDS011;4732;49.340;10.886;2023-06-22T17:20:32;12.00;;;4.80;;
9384;SDS011;4732;49.340;10.886;2023-06-22T17:22:58;11.52;;;4.97;;
9384;SDS011;4732;49.340;10.886;2023-06-22T17:25:23;10.02;;;4.22;;
9384;SDS011;4732;49.340;10.886;2023-06-22T17:27:52;11.35;;;4.90;;
9384;SDS011;4732;49.340;10.886;2023-06-22T17:30:26;12.93;;;4.75;;
9384;SDS011;4732;49.340;10.886;2023-06-22T17:32:52;12.70;;;5.30;;
9384;SDS011;4732;49.340;10.886;2023-06-22T17:35:17;10.52;;;5.30;;
9384;SDS011;4732;49.340;10.886;2023-06-22T17:37:53;11.43;;;4.65;;
9384;SDS011;4732;49.340;10.886;2023-06-22T17:40:20;14.98;;;5.65;;
9384;SDS011;4732;49.340;10.886;2023-06-22T17:42:48;12.05;;;5.82;;